Time;durP1;ratioP1;P1;durP2;ratioP2;P2;SDS_P1;SDS_P2;PMS_P1;PMS_P2;Temp;Humidity;BMP_temperature;BMP_pressure;BME280_temperature;BME280_humidity;BME280_pressure;Samples;Min_cycle;Max_cycle;Signal;HPM_P1;HPM_P2
2023/06/14 00:00:11;;;;;;;14.50;5.30;;;;;;;11.74;95.08;100289.37;181679;1260;43030;-56
2023/06/14 00:04:36;;;;;;;6.70;4.30;;;;;;;11.66;94.02;100281.70;181862;1260;60076;-58
2023/06/14 00:08:40;;;;;;;9.00;4.80;;;;;;;11.52;94.60;100282.89;181853;1257;43723;-58
2023/06/14 00:13:11;;;;;;;8.20;4.00;;;;;;;11.43;94.56;100288.10;181704;1258;43859;-56
2023/06/14 00:17:16;;;;;;;8.70;5.30;;;;;;;11.40;95.05;100289.17;181756;1259;43110;-57
2023/06/14 00:21:19;;;;;;;6.50;4.80;;;;;;;11.42;96.33;100287.95;181771;1258;43067;-56
2023/06/14 00:25:26;;;;;;;8.10;4.50;;;;;;;11.42;97.23;100285.71;181876;1258;59570;-56
2023/06/14 00:29:31;;;;;;;8.90;5.90;;;;;;;11.42;97.61;100283.88;181728;1259;43729;-56
2023/06/14 00:33:34;;;;;;;9.50;5.20;;;;;;;11.46;97.00;100283.60;181759;1258;43078;-56
2023/06/14 00:37:39;;;;;;;8.00;4.60;;;;;;;11.43;95.05;100284.88;181804;1256;43692;-58
2023/06/14 00:46:42;;;;;;;5.00;4.50;;;;;;;11.24;94.25;100284.73;181838;1257;59549;-56
2023/06/14 00:50:49;;;;;;;7.30;4.40;;;;;;;11.16;94.26;100280.24;181839;1257;43143;-56
2023/06/14 00:54:52;;;;;;;;;;;;;;;11.09;94.15;100279.59;181844;1259;43898;-57
2023/06/14 00:58:57;;;;;;;5.00;4.00;;;;;;;11.02;94.27;100273.73;181872;1257;42864;-56
2023/06/14 01:03:01;;;;;;;7.50;4.50;;;;;;;10.95;96.30;100270.23;181951;1257;43053;-57
2023/06/14 01:07:38;;;;;;;9.90;5.90;;;;;;;10.92;97.15;100275.29;181896;1257;59201;-56
2023/06/14 01:12:01;;;;;;;7.30;5.70;;;;;;;10.92;98.98;100278.09;181930;1257;49918;-58
2023/06/14 01:16:07;;;;;;;9.60;5.80;;;;;;;10.95;99.38;100286.54;181819;1257;43637;-54
2023/06/14 01:20:17;;;;;;;13.40;6.40;;;;;;;11.00;99.25;100290.95;181959;1257;43032;-56
2023/06/14 01:24:23;;;;;;;9.40;5.40;;;;;;;10.95;97.51;100294.05;181944;1257;43094;-56
2023/06/14 01:28:31;;;;;;;5.20;4.50;;;;;;;10.83;98.02;100299.23;181759;1260;58220;-55
2023/06/14 01:32:35;;;;;;;5.60;4.30;;;;;;;10.70;98.79;100304.77;181841;1257;43165;-55
2023/06/14 01:36:41;;;;;;;7.30;5.00;;;;;;;10.65;98.85;100305.55;181947;1257;43646;-55
2023/06/14 01:40:47;;;;;;;10.60;5.10;;;;;;;10.61;97.35;100302.48;181964;1257;43315;-53
2023/06/14 01:44:53;;;;;;;10.50;5.40;;;;;;;10.55;97.12;100301.54;181938;1257;42980;-55
2023/06/14 01:48:57;;;;;;;7.50;3.90;;;;;;;10.51;99.23;100304.69;181886;1257;58401;-55
2023/06/14 01:53:00;;;;;;;9.40;5.40;;;;;;;10.47;99.28;100300.23;181924;1257;43098;-56
2023/06/14 01:57:03;;;;;;;12.50;5.60;;;;;;;10.41;98.07;100297.84;181971;1257;43013;-55
2023/06/14 02:01:07;;;;;;;17.00;6.70;;;;;;;10.36;97.62;100296.63;181914;1257;43466;-55
2023/06/14 02:05:10;;;;;;;9.30;4.60;;;;;;;10.33;99.40;100294.21;181876;1257;43169;-57
2023/06/14 02:09:13;;;;;;;5.70;4.70;;;;;;;10.33;98.73;100288.17;181920;1261;58654;-56
2023/06/14 02:13:16;;;;;;;5.30;4.40;;;;;;;10.28;96.80;100289.84;181817;1260;43810;-56
2023/06/14 02:17:20;;;;;;;8.90;4.60;;;;;;;10.24;96.42;100290.40;181908;1257;43053;-56
2023/06/14 02:21:23;;;;;;;5.60;3.40;;;;;;;10.15;95.85;100291.20;181897;1257;43078;-55
2023/06/14 02:25:27;;;;;;;5.20;4.20;;;;;;;10.08;95.65;100296.23;181996;1257;43727;-56
2023/06/14 02:29:30;;;;;;;8.00;4.00;;;;;;;10.02;96.28;100295.61;181882;1259;58300;-54
2023/06/14 02:33:34;;;;;;;11.70;4.50;;;;;;;9.94;96.36;100296.11;181902;1257;43066;-55
2023/06/14 02:37:37;;;;;;;8.20;4.00;;;;;;;9.85;95.83;100295.91;182021;1257;43129;-56
2023/06/14 02:41:40;;;;;;;8.90;5.00;;;;;;;9.78;96.03;100296.27;181807;1257;191453;-57
2023/06/14 02:45:43;;;;;;;6.80;4.00;;;;;;;9.73;96.90;100309.57;181878;1257;42963;-56
2023/06/14 02:49:46;;;;;;;5.50;3.40;;;;;;;9.61;96.00;100307.30;181929;1257;58606;-55
2023/06/14 02:53:50;;;;;;;7.50;4.60;;;;;;;9.52;96.59;100308.54;181880;1257;43143;-56
2023/06/14 02:57:53;;;;;;;7.60;4.40;;;;;;;9.48;97.51;100312.04;181892;1260;43057;-56
2023/06/14 03:01:58;;;;;;;8.70;5.70;;;;;;;9.52;97.60;100310.83;181904;1257;43121;-56
2023/06/14 03:06:03;;;;;;;9.50;4.10;;;;;;;9.49;96.59;100305.54;181918;1257;43016;-56
2023/06/14 03:10:09;;;;;;;9.30;4.10;;;;;;;9.45;97.20;100305.20;181949;1257;58386;-55
2023/06/14 03:14:13;;;;;;;6.30;4.40;;;;;;;9.45;98.64;100303.09;181985;1257;43561;-54
2023/06/14 03:18:16;;;;;;;7.10;5.10;;;;;;;9.37;100.00;100306.52;181969;1257;43014;-56
2023/06/14 03:22:21;;;;;;;6.50;5.90;;;;;;;9.35;100.00;100313.73;181775;1260;43143;-52
2023/06/14 03:26:25;;;;;;;7.90;5.20;;;;;;;9.46;100.00;100317.65;181954;1257;43774;-56
2023/06/14 03:30:34;;;;;;;13.10;6.30;;;;;;;9.63;100.00;100298.30;182033;1257;57683;-54
2023/06/14 03:34:38;;;;;;;10.90;4.70;;;;;;;9.75;100.00;100285.48;181862;1262;43221;-56
2023/06/14 03:38:41;;;;;;;7.70;5.30;;;;;;;9.80;100.00;100288.13;181979;1257;43828;-56
2023/06/14 03:42:54;;;;;;;10.30;6.10;;;;;;;9.89;100.00;100286.04;181893;1258;43133;-55
2023/06/14 03:46:57;;;;;;;8.60;5.80;;;;;;;9.96;100.00;100284.04;181846;1257;43078;-56
2023/06/14 03:51:02;;;;;;;7.60;6.00;;;;;;;10.00;100.00;100285.15;181906;1257;58353;-56
2023/06/14 03:55:05;;;;;;;11.40;7.10;;;;;;;10.10;100.00;100284.14;181910;1257;43180;-56
2023/06/14 03:59:11;;;;;;;10.80;6.90;;;;;;;10.25;100.00;100291.48;181935;1257;43733;-56
2023/06/14 04:03:19;;;;;;;9.80;5.90;;;;;;;10.51;100.00;100296.36;181835;1257;43041;-53
2023/06/14 04:07:23;;;;;;;12.00;7.50;;;;;;;10.79;100.00;100293.39;182022;1257;43928;-51
2023/06/14 04:11:26;;;;;;;10.40;6.80;;;;;;;11.06;100.00;100302.12;181741;1260;58799;-51
2023/06/14 04:16:24;;;;;;;19.80;7.00;;;;;;;11.27;100.00;100306.50;181812;1257;43037;-55
2023/06/14 04:20:28;;;;;;;8.50;7.20;;;;;;;11.45;100.00;100308.52;181975;1257;43030;-56
2023/06/14 04:24:32;;;;;;;13.60;8.10;;;;;;;11.58;100.00;100318.77;181923;1257;43523;-56
2023/06/14 04:28:40;;;;;;;12.70;7.80;;;;;;;11.75;100.00;100319.59;181994;1257;43058;-55
2023/06/14 04:32:45;;;;;;;10.70;7.50;;;;;;;11.82;100.00;100317.42;181990;1257;58141;-56
2023/06/14 04:36:49;;;;;;;13.70;7.40;;;;;;;11.91;100.00;100320.02;181940;1257;43067;-54
2023/06/14 04:40:52;;;;;;;15.10;8.60;;;;;;;11.99;100.00;100314.37;181675;1257;43818;-54
2023/06/14 04:44:56;;;;;;;10.60;8.20;;;;;;;12.39;100.00;100313.43;181890;1257;43499;-54
2023/06/14 04:49:01;;;;;;;10.10;7.40;;;;;;;13.51;100.00;100311.17;181924;1257;43127;-58
2023/06/14 04:53:05;;;;;;;11.40;9.00;;;;;;;14.42;99.78;100308.73;181919;1257;58381;-59
2023/06/14 04:57:17;;;;;;;12.30;8.20;;;;;;;14.54;95.53;100313.46;181722;1260;43293;-58
2023/06/14 05:01:21;;;;;;;10.50;7.90;;;;;;;14.13;93.82;100325.96;181927;1257;43121;-60
2023/06/14 05:05:24;;;;;;;9.90;8.80;;;;;;;13.75;97.87;100327.04;181888;1257;44212;-59
2023/06/14 05:09:27;;;;;;;13.50;8.30;;;;;;;13.67;100.00;100323.19;181919;1257;42992;-58
2023/06/14 05:13:32;;;;;;;10.60;8.40;;;;;;;13.46;100.00;100321.36;181881;1257;58853;-59
2023/06/14 05:17:36;;;;;;;10.20;8.70;;;;;;;13.42;100.00;100324.07;181850;1257;43154;-59
2023/06/14 05:21:39;;;;;;;10.80;6.90;;;;;;;13.69;100.00;100321.77;181802;1257;43672;-59
2023/06/14 05:25:46;;;;;;;8.90;8.00;;;;;;;13.73;100.00;100320.27;181939;1257;43510;-60
2023/06/14 05:29:49;;;;;;;13.50;10.80;;;;;;;13.96;100.00;100328.63;181901;1257;43760;-58
2023/06/14 05:33:53;;;;;;;13.30;10.20;;;;;;;14.41;99.99;100329.40;181954;1257;59839;-60
2023/06/14 05:37:56;;;;;;;12.90;10.20;;;;;;;14.76;97.35;100332.91;181910;1257;43057;-60
2023/06/14 05:41:59;;;;;;;12.30;9.30;;;;;;;15.29;96.81;100337.57;181997;1257;43749;-61
2023/06/14 05:46:03;;;;;;;10.60;9.40;;;;;;;15.68;91.76;100347.02;181876;1257;43115;-59
2023/06/14 05:50:06;;;;;;;14.20;9.80;;;;;;;15.81;89.62;100353.76;181837;1257;43621;-61
2023/06/14 05:54:09;;;;;;;10.90;8.80;;;;;;;15.92;90.15;100351.42;181799;1259;58763;-60
2023/06/14 05:58:13;;;;;;;11.20;8.00;;;;;;;15.93;90.50;100352.88;181717;1259;43592;-59
2023/06/14 06:02:16;;;;;;;11.40;8.80;;;;;;;15.97;90.38;100353.60;181805;1257;43776;-59
2023/06/14 06:06:20;;;;;;;11.10;8.20;;;;;;;16.20;91.61;100350.62;181853;1258;43714;-60
2023/06/14 06:10:25;;;;;;;9.40;8.10;;;;;;;16.75;90.48;100351.86;181919;1259;43664;-60
2023/06/14 06:14:29;;;;;;;9.30;8.40;;;;;;;17.15;87.45;100349.77;181840;1257;58234;-60
2023/06/14 06:18:32;;;;;;;11.20;9.10;;;;;;;17.26;84.91;100351.81;181856;1257;43075;-60
2023/06/14 06:22:35;;;;;;;12.80;8.50;;;;;;;17.25;85.04;100354.44;181927;1257;43518;-62
2023/06/14 06:26:39;;;;;;;10.70;9.00;;;;;;;17.25;87.14;100353.70;182003;1257;43610;-59
2023/06/14 06:30:55;;;;;;;10.60;8.80;;;;;;;17.27;86.66;100360.64;181944;1257;42959;-60
2023/06/14 06:34:59;;;;;;;10.60;8.40;;;;;;;17.33;86.41;100356.42;181898;1258;58411;-60
2023/06/14 06:39:09;;;;;;;9.80;8.70;;;;;;;17.46;85.28;100362.19;181937;1257;43008;-60
2023/06/14 06:43:36;;;;;;;8.40;7.60;;;;;;;17.59;83.85;100370.29;181922;1257;43619;-59
2023/06/14 06:47:41;;;;;;;9.30;8.40;;;;;;;17.85;83.40;100375.15;181910;1257;43093;-60
2023/06/14 06:52:03;;;;;;;9.30;8.30;;;;;;;18.36;81.00;100380.73;181850;1257;43775;-60
2023/06/14 07:05:33;;;;;;;11.10;7.80;;;;;;;19.41;75.89;100374.89;172714;1254;84548;-57
2023/06/14 07:09:42;;;;;;;7.20;6.20;;;;;;;19.36;75.62;100378.94;181910;1257;43995;-57
2023/06/14 07:13:45;;;;;;;9.30;6.40;;;;;;;19.45;75.53;100384.35;181826;1259;43584;-57
2023/06/14 07:17:48;;;;;;;9.10;6.60;;;;;;;19.64;75.43;100384.54;181875;1260;58337;-56
2023/06/14 07:21:52;;;;;;;12.20;7.40;;;;;;;19.90;74.06;100386.40;181961;1257;43252;-57
2023/06/14 07:25:55;;;;;;;10.10;7.40;;;;;;;19.97;72.66;100385.74;181945;1259;43500;-56
2023/06/14 07:29:58;;;;;;;7.90;6.50;;;;;;;20.11;73.36;100393.21;181878;1257;43113;-56
2023/06/14 07:34:03;;;;;;;10.80;7.10;;;;;;;20.22;73.17;100395.02;181887;1262;43692;-56
2023/06/14 07:38:07;;;;;;;;;;;;;;;20.44;72.32;100390.83;181826;1260;58365;-57
2023/06/14 07:42:10;;;;;;;8.00;6.90;;;;;;;20.82;71.03;100391.17;181820;1257;43113;-57
2023/06/14 07:46:14;;;;;;;6.70;5.60;;;;;;;21.15;69.58;100389.42;181972;1257;43707;-56
2023/06/14 07:50:17;;;;;;;6.90;5.60;;;;;;;21.34;68.55;100389.05;181905;1257;43176;-57
2023/06/14 07:54:24;;;;;;;8.80;6.90;;;;;;;21.49;69.12;100392.55;181903;1257;43012;-58
2023/06/14 07:58:28;;;;;;;7.00;6.30;;;;;;;21.51;67.22;100394.69;181829;1257;58641;-57
2023/06/14 08:02:31;;;;;;;8.30;7.30;;;;;;;21.34;67.01;100391.05;181771;1259;43063;-57
2023/06/14 08:06:34;;;;;;;10.10;7.20;;;;;;;21.13;67.59;100392.16;181886;1257;43845;-57
2023/06/14 08:10:37;;;;;;;8.80;7.70;;;;;;;21.11;69.74;100391.33;181960;1257;43030;-57
2023/06/14 08:15:33;;;;;;;9.60;7.90;;;;;;;21.10;69.30;100388.61;181898;1257;43026;-57
2023/06/14 08:19:36;;;;;;;13.90;10.50;;;;;;;20.85;70.54;100385.90;181885;1257;58389;-56
2023/06/14 08:23:42;;;;;;;12.70;9.10;;;;;;;21.10;70.86;100382.80;181859;1258;43692;-57
2023/06/14 08:28:11;;;;;;;8.90;7.90;;;;;;;21.79;69.86;100382.27;181893;1258;43001;-56
2023/06/14 08:32:14;;;;;;;10.70;9.10;;;;;;;21.98;66.45;100389.43;181912;1257;43104;-57
2023/06/14 08:36:17;;;;;;;11.40;9.40;;;;;;;21.98;65.91;100396.27;181851;1257;43696;-57
2023/06/14 08:40:41;;;;;;;9.70;8.40;;;;;;;21.98;65.03;100393.77;181981;1257;59259;-57
2023/06/14 08:44:45;;;;;;;12.30;9.20;;;;;;;22.31;65.50;100392.11;181921;1257;43086;-56
2023/06/14 08:48:52;;;;;;;12.50;9.20;;;;;;;22.42;64.24;100384.84;181984;1257;43696;-56
2023/06/14 08:53:00;;;;;;;17.10;8.50;;;;;;;22.49;63.94;100387.35;181942;1257;43801;-56
2023/06/14 08:57:06;;;;;;;10.10;8.00;;;;;;;22.35;64.42;100385.00;181919;1257;43728;-57
2023/06/14 09:01:14;;;;;;;10.30;6.30;;;;;;;22.18;64.88;100374.63;182039;1260;58392;-57
2023/06/14 09:05:18;;;;;;;10.50;7.00;;;;;;;22.21;62.79;100370.48;181991;1257;43102;-57
2023/06/14 09:09:25;;;;;;;8.00;7.00;;;;;;;22.31;65.30;100377.65;181938;1257;43043;-56
2023/06/14 09:13:29;;;;;;;8.50;6.60;;;;;;;22.31;64.31;100378.19;181944;1257;43456;-56
2023/06/14 09:17:35;;;;;;;8.90;7.10;;;;;;;22.18;65.68;100375.71;181865;1260;43059;-57
2023/06/14 09:21:40;;;;;;;8.10;6.20;;;;;;;22.43;64.77;100376.25;181905;1257;58009;-57
2023/06/14 09:25:46;;;;;;;8.10;5.90;;;;;;;22.61;64.90;100375.92;181874;1257;43063;-56
2023/06/14 09:30:20;;;;;;;7.90;6.30;;;;;;;22.49;64.30;100373.69;181857;1257;43157;-56
2023/06/14 09:34:23;;;;;;;8.40;7.50;;;;;;;22.19;66.58;100375.13;181981;1257;43145;-55
2023/06/14 09:38:27;;;;;;;10.00;6.50;;;;;;;21.99;66.26;100376.49;181792;1257;43453;-56
2023/06/14 09:42:30;;;;;;;6.90;6.30;;;;;;;22.02;65.68;100371.21;181869;1257;60117;-56
2023/06/14 09:46:36;;;;;;;6.80;6.10;;;;;;;22.23;65.73;100368.74;181917;1257;43592;-54
2023/06/14 09:50:48;;;;;;;7.20;6.10;;;;;;;22.35;65.88;100365.11;181869;1257;43089;-56
2023/06/14 09:54:53;;;;;;;9.00;7.00;;;;;;;22.52;63.50;100361.53;181981;1257;43352;-57
2023/06/14 09:58:58;;;;;;;6.40;5.70;;;;;;;22.61;63.01;100358.45;181914;1257;43646;-55
2023/06/14 10:03:13;;;;;;;5.90;5.30;;;;;;;22.52;64.26;100358.91;181918;1257;58380;-57
2023/06/14 10:07:20;;;;;;;6.50;5.80;;;;;;;22.63;64.78;100360.04;181898;1257;43855;-57
2023/06/14 10:11:25;;;;;;;5.40;4.50;;;;;;;22.76;63.32;100358.90;181931;1257;43793;-57
2023/06/14 10:15:35;;;;;;;5.00;4.60;;;;;;;22.72;63.21;100358.60;181873;1259;43143;-56
2023/06/14 10:20:06;;;;;;;5.10;4.30;;;;;;;22.51;62.67;100359.65;181239;1263;43571;-56
2023/06/14 10:24:15;;;;;;;5.50;4.20;;;;;;;22.42;63.17;100354.65;181244;1263;58395;-57
2023/06/14 10:28:23;;;;;;;6.00;4.80;;;;;;;22.56;62.53;100352.68;181225;1262;43134;-56
2023/06/14 10:32:28;;;;;;;4.70;4.00;;;;;;;22.46;61.89;100349.34;181250;1262;43449;-57
2023/06/14 10:36:35;;;;;;;5.20;4.30;;;;;;;22.25;61.78;100351.71;181530;1257;43729;-55
2023/06/14 10:40:39;;;;;;;4.50;4.00;;;;;;;22.23;62.18;100351.23;181951;1257;43022;-55
2023/06/14 10:44:51;;;;;;;5.10;4.40;;;;;;;22.33;63.50;100351.36;181996;1257;57036;-55
2023/06/14 10:48:58;;;;;;;6.30;4.30;;;;;;;22.33;64.01;100348.39;181896;1259;43771;-56
2023/06/14 10:53:22;;;;;;;4.70;4.10;;;;;;;22.27;65.67;100351.42;181945;1257;43444;-55
2023/06/14 10:57:25;;;;;;;6.30;5.00;;;;;;;22.18;67.90;100351.16;181876;1257;43110;-55
2023/06/14 11:07:08;;;;;;;7.00;5.10;;;;;;;22.46;64.40;100333.95;181917;1259;57942;-55
2023/06/14 11:11:13;;;;;;;5.90;4.20;;;;;;;22.70;63.61;100331.12;181840;1257;42998;-56
2023/06/14 11:15:16;;;;;;;6.50;4.80;;;;;;;22.55;63.30;100333.83;181878;1257;43092;-56
2023/06/14 11:19:19;;;;;;;8.10;4.80;;;;;;;22.33;65.69;100333.55;181927;1259;43714;-54
2023/06/14 11:23:37;;;;;;;5.90;5.30;;;;;;;22.16;66.61;100330.44;182000;1257;43042;-55
2023/06/14 11:27:43;;;;;;;7.70;5.90;;;;;;;22.01;65.54;100329.80;181817;1260;59786;-55
2023/06/14 11:32:14;;;;;;;12.00;5.80;;;;;;;21.90;69.86;100327.52;181881;1257;43196;-54
2023/06/14 11:36:18;;;;;;;5.80;5.20;;;;;;;21.74;71.34;100331.16;181951;1257;43812;-54
2023/06/14 11:40:38;;;;;;;7.40;4.80;;;;;;;21.57;73.10;100327.66;181942;1257;43123;-55
2023/06/14 11:44:41;;;;;;;9.00;5.80;;;;;;;21.42;75.21;100325.61;181841;1259;43732;-58
2023/06/14 11:48:45;;;;;;;5.40;4.80;;;;;;;21.41;71.27;100321.29;181822;1257;58354;-56
2023/06/14 11:52:56;;;;;;;6.00;5.40;;;;;;;21.65;71.48;100324.29;181858;1259;43086;-56
2023/06/14 11:57:00;;;;;;;6.10;4.60;;;;;;;21.98;68.28;100322.32;181931;1257;43109;-57
2023/06/14 12:01:05;;;;;;;6.20;5.00;;;;;;;22.23;65.70;100312.72;181994;1257;43528;-60
2023/06/14 12:05:10;;;;;;;6.20;5.20;;;;;;;22.30;65.42;100308.16;181885;1257;43068;-56
2023/06/14 12:09:17;;;;;;;4.80;4.30;;;;;;;22.28;65.87;100311.73;181949;1257;59279;-57
2023/06/14 12:13:51;;;;;;;5.40;4.40;;;;;;;22.22;67.45;100307.13;181909;1257;43747;-55
2023/06/14 12:17:54;;;;;;;6.70;6.00;;;;;;;22.27;67.81;100297.36;181870;1257;43355;-55
2023/06/14 12:22:01;;;;;;;6.50;4.80;;;;;;;22.07;68.31;100304.90;181943;1257;43740;-57
2023/06/14 12:26:04;;;;;;;5.70;5.10;;;;;;;21.84;68.49;100299.41;181916;1257;43325;-55
2023/06/14 12:30:17;;;;;;;9.80;5.50;;;;;;;21.65;69.59;100300.46;181878;1259;57819;-55
2023/06/14 12:34:20;;;;;;;5.10;4.30;;;;;;;21.49;69.83;100302.17;181930;1258;43131;-56
2023/06/14 12:38:24;;;;;;;5.10;3.80;;;;;;;21.21;72.60;100302.17;181905;1257;44013;-56
2023/06/14 12:42:30;;;;;;;7.60;4.80;;;;;;;20.76;76.58;100298.52;181888;1259;43135;-55
2023/06/14 12:46:34;;;;;;;4.90;3.90;;;;;;;20.45;80.79;100301.21;181891;1257;43710;-55
2023/06/14 12:50:38;;;;;;;5.20;4.30;;;;;;;20.26;83.40;100305.15;181942;1257;57977;-56
2023/06/14 12:54:42;;;;;;;6.70;4.40;;;;;;;20.26;79.95;100290.91;181860;1257;43371;-56
2023/06/14 12:58:45;;;;;;;4.70;4.00;;;;;;;20.43;78.73;100287.65;181959;1257;43563;-56
2023/06/14 13:02:48;;;;;;;13.20;5.40;;;;;;;20.70;78.37;100286.98;181971;1258;43811;-56
2023/06/14 13:06:55;;;;;;;5.80;3.60;;;;;;;21.18;76.67;100284.50;181850;1257;43747;-57
2023/06/14 13:10:58;;;;;;;4.60;4.10;;;;;;;21.71;73.73;100283.13;181897;1257;58406;-57
2023/06/14 13:15:02;;;;;;;8.60;4.00;;;;;;;21.94;70.46;100284.67;181886;1257;43597;-57
2023/06/14 13:19:06;;;;;;;5.20;3.80;;;;;;;21.99;70.27;100295.11;181723;1257;43531;-54
2023/06/14 13:23:09;;;;;;;4.90;3.20;;;;;;;21.99;67.93;100290.56;181949;1259;43157;-57
2023/06/14 13:27:14;;;;;;;7.40;3.40;;;;;;;22.04;64.88;100290.48;181856;1257;43045;-56
2023/06/14 13:31:17;;;;;;;3.20;2.90;;;;;;;22.10;66.56;100281.76;181916;1257;58155;-56
2023/06/14 13:35:24;;;;;;;5.80;2.50;;;;;;;22.13;66.21;100278.14;181795;1257;43375;-56
2023/06/14 13:39:27;;;;;;;6.30;3.60;;;;;;;22.29;65.18;100275.72;181875;1257;43675;-56
2023/06/14 13:43:42;;;;;;;3.20;2.90;;;;;;;22.62;65.73;100275.48;181946;1257;43784;-56
2023/06/14 13:47:48;;;;;;;6.40;4.10;;;;;;;22.64;62.83;100275.59;181927;1258;43731;-56
2023/06/14 13:51:51;;;;;;;3.10;2.40;;;;;;;22.59;65.29;100276.29;181819;1257;60726;-56
2023/06/14 13:55:55;;;;;;;3.70;2.80;;;;;;;22.42;64.78;100280.81;181854;1257;43106;-56
2023/06/14 14:00:19;;;;;;;4.90;3.40;;;;;;;22.24;66.11;100277.09;181824;1257;43635;-56
2023/06/14 14:04:26;;;;;;;4.20;3.80;;;;;;;22.04;67.95;100279.94;181816;1258;43607;-56
2023/06/14 14:08:31;;;;;;;4.10;3.70;;;;;;;21.88;67.82;100280.95;181837;1257;43954;-56
2023/06/14 14:12:35;;;;;;;3.90;3.00;;;;;;;21.84;67.43;100281.31;181854;1257;59434;-56
2023/06/14 14:16:38;;;;;;;5.90;3.50;;;;;;;21.89;66.53;100277.33;181877;1257;43176;-55
2023/06/14 14:20:41;;;;;;;5.80;2.60;;;;;;;21.93;66.07;100277.48;181792;1258;43133;-55
2023/06/14 14:24:44;;;;;;;5.40;3.80;;;;;;;21.96;65.32;100278.27;181840;1258;43786;-55
2023/06/14 14:28:47;;;;;;;5.20;3.90;;;;;;;22.10;65.54;100273.96;181850;1257;43234;-55
2023/06/14 14:32:56;;;;;;;7.30;3.60;;;;;;;22.30;65.17;100270.27;181829;1259;58369;-55
2023/06/14 14:37:00;;;;;;;5.90;2.80;;;;;;;22.49;65.90;100268.36;181913;1257;43156;-56
2023/06/14 14:41:03;;;;;;;6.00;3.60;;;;;;;22.66;64.14;100264.80;181648;1257;313840;-55
2023/06/14 14:45:12;;;;;;;5.40;3.50;;;;;;;22.85;64.08;100263.06;181809;1257;43031;-52
2023/06/14 14:49:15;;;;;;;4.90;3.10;;;;;;;22.98;62.80;100266.20;181792;1257;43066;-54
2023/06/14 14:53:18;;;;;;;3.30;3.00;;;;;;;23.00;61.47;100265.64;181919;1259;58250;-55
2023/06/14 14:57:21;;;;;;;5.90;3.50;;;;;;;23.00;60.62;100270.71;181829;1257;43104;-55
2023/06/14 15:02:28;;;;;;;9.70;4.30;;;;;;;22.83;62.49;100274.83;181875;1257;43221;-54
2023/06/14 15:06:31;;;;;;;7.70;5.00;;;;;;;22.41;67.80;100276.45;181853;1257;43098;-56
2023/06/14 15:10:34;;;;;;;4.40;4.00;;;;;;;22.01;70.95;100274.55;181701;1257;43106;-55
2023/06/14 15:14:37;;;;;;;5.90;3.80;;;;;;;21.63;74.38;100276.46;181917;1257;59270;-56
2023/06/14 15:18:41;;;;;;;11.60;5.90;;;;;;;21.37;77.87;100272.26;181775;1258;43705;-54
2023/06/14 15:22:50;;;;;;;9.80;5.40;;;;;;;21.19;78.46;100274.20;181826;1257;43567;-55
2023/06/14 15:26:53;;;;;;;5.20;4.70;;;;;;;21.09;80.20;100274.00;181836;1258;43196;-55
2023/06/14 15:31:00;;;;;;;4.40;3.60;;;;;;;21.18;80.40;100272.60;181886;1259;43007;-56
2023/06/14 15:35:04;;;;;;;9.50;4.00;;;;;;;21.26;80.24;100275.84;181882;1257;58359;-54
2023/06/14 15:39:07;;;;;;;10.90;5.10;;;;;;;21.43;80.83;100280.04;181878;1257;43109;-55
2023/06/14 15:43:10;;;;;;;5.80;4.70;;;;;;;21.46;82.85;100280.80;181963;1257;43353;-54
2023/06/14 15:47:13;;;;;;;7.40;5.30;;;;;;;21.34;82.07;100277.18;181973;1257;43124;-55
2023/06/14 15:51:17;;;;;;;6.20;3.40;;;;;;;21.20;81.82;100280.20;181901;1257;43732;-53
2023/06/14 15:55:20;;;;;;;5.60;4.00;;;;;;;21.16;81.48;100284.37;181920;1258;58578;-53
2023/06/14 15:59:24;;;;;;;5.10;4.40;;;;;;;21.16;82.57;100287.11;181829;1257;43130;-54
2023/06/14 16:03:27;;;;;;;7.70;4.60;;;;;;;21.09;85.34;100284.86;181830;1258;43674;-55
2023/06/14 16:07:31;;;;;;;5.50;4.60;;;;;;;21.04;85.98;100288.59;181853;1259;43750;-55
2023/06/14 16:11:35;;;;;;;5.10;3.60;;;;;;;21.03;85.09;100291.96;181809;1258;43372;-54
2023/06/14 16:15:39;;;;;;;7.60;5.00;;;;;;;20.99;84.85;100286.09;181927;1258;58709;-55
2023/06/14 16:19:43;;;;;;;7.30;5.00;;;;;;;21.02;83.53;100283.83;181861;1260;43486;-55
2023/06/14 16:23:51;;;;;;;6.90;4.50;;;;;;;21.05;86.21;100284.23;181689;1258;43017;-53
2023/06/14 16:27:54;;;;;;;6.50;4.70;;;;;;;21.05;87.83;100283.20;181909;1257;43812;-55
2023/06/14 16:31:57;;;;;;;4.50;4.00;;;;;;;21.04;87.56;100284.85;181915;1257;43158;-54
2023/06/14 16:36:00;;;;;;;6.90;5.10;;;;;;;21.06;86.20;100281.45;181892;1257;58434;-55
2023/06/14 16:40:04;;;;;;;5.20;4.70;;;;;;;21.08;84.65;100284.30;181933;1257;43834;-54
2023/06/14 16:44:08;;;;;;;4.50;4.10;;;;;;;21.06;83.87;100287.07;181927;1257;43111;-55
2023/06/14 16:48:11;;;;;;;7.40;4.00;;;;;;;21.11;83.97;100290.40;181937;1257;43093;-55
2023/06/14 16:52:14;;;;;;;4.70;3.80;;;;;;;21.17;83.60;100296.45;182017;1257;43824;-55
2023/06/14 16:56:21;;;;;;;5.80;4.60;;;;;;;21.22;82.75;100301.10;181922;1257;58702;-55
2023/06/14 17:00:25;;;;;;;7.50;4.10;;;;;;;21.12;82.13;100302.19;181914;1258;43107;-56
2023/06/14 17:04:47;;;;;;;4.30;3.80;;;;;;;20.99;83.17;100300.91;181880;1258;43028;-54
2023/06/14 17:08:51;;;;;;;8.10;4.20;;;;;;;20.94;84.13;100303.02;181742;1257;43431;-54
2023/06/14 17:13:04;;;;;;;14.00;5.60;;;;;;;20.93;83.81;100308.64;181900;1257;43355;-56
2023/06/14 17:36:41;;;;;;;6.70;5.10;;;;;;;20.59;84.63;100326.70;181686;1260;43638;-53
2023/06/14 17:40:43;;;;;;;6.00;4.20;;;;;;;20.40;85.15;100323.44;184735;1242;44889;-54
2023/06/14 17:44:55;;;;;;;5.50;4.80;;;;;;;20.21;86.21;100322.71;185012;1240;43453;-54
2023/06/14 17:49:00;;;;;;;23.90;7.50;;;;;;;20.10;87.75;100326.23;184968;1240;43526;-55
2023/06/14 17:53:03;;;;;;;7.40;5.00;;;;;;;20.02;88.68;100322.70;184878;1240;44569;-55
2023/06/14 17:57:06;;;;;;;7.70;6.40;;;;;;;19.99;89.22;100322.54;184951;1239;58217;-56
2023/06/14 18:01:08;;;;;;;36.40;28.40;;;;;;;20.01;88.84;100320.63;184838;1241;43845;-55
2023/06/14 18:05:11;;;;;;;21.70;16.10;;;;;;;19.99;88.33;100321.56;184965;1241;46065;-55
2023/06/14 18:09:14;;;;;;;19.30;13.60;;;;;;;19.92;89.69;100327.27;184802;1240;45982;-57
2023/06/14 18:13:23;;;;;;;15.10;7.50;;;;;;;19.83;91.33;100326.59;184964;1241;45956;-57
2023/06/14 18:17:25;;;;;;;10.00;6.80;;;;;;;19.67;91.64;100326.35;184804;1239;58410;-56
2023/06/14 18:21:27;;;;;;;9.40;4.80;;;;;;;19.55;91.87;100324.30;184717;1240;44749;-56
2023/06/14 18:25:29;;;;;;;6.60;5.40;;;;;;;19.49;91.90;100327.71;184815;1242;43426;-56
2023/06/14 18:29:32;;;;;;;7.20;4.80;;;;;;;19.48;92.02;100328.17;184805;1241;44305;-57
2023/06/14 18:33:38;;;;;;;20.40;6.10;;;;;;;19.41;92.58;100331.59;184605;1239;46084;-57
2023/06/14 18:37:42;;;;;;;6.80;4.70;;;;;;;19.35;92.12;100332.83;184750;1240;58822;-57
2023/06/14 18:41:44;;;;;;;7.00;4.60;;;;;;;19.29;91.75;100331.36;184505;1241;46040;-57
2023/06/14 18:45:52;;;;;;;7.80;4.30;;;;;;;19.24;91.85;100338.37;184691;1240;45912;-57
2023/06/14 18:49:55;;;;;;;6.80;4.50;;;;;;;19.23;92.43;100340.65;185033;1239;43797;-56
2023/06/14 18:54:01;;;;;;;7.50;4.80;;;;;;;19.20;91.81;100335.59;186215;1231;43500;-56
2023/06/14 18:58:11;;;;;;;6.10;5.10;;;;;;;19.14;91.90;100340.45;186254;1231;58397;-55
2023/06/14 19:02:14;;;;;;;4.20;3.90;;;;;;;19.05;92.10;100340.59;185932;1231;46011;-56
2023/06/14 19:06:17;;;;;;;5.00;4.40;;;;;;;18.92;92.76;100340.96;186156;1230;43762;-57
2023/06/14 19:10:50;;;;;;;6.50;5.00;;;;;;;18.81;94.09;100343.66;186063;1230;45872;-56
2023/06/14 19:14:53;;;;;;;10.20;5.40;;;;;;;18.71;95.18;100346.69;186211;1231;46080;-56
2023/06/14 19:18:58;;;;;;;8.20;5.10;;;;;;;18.60;95.29;100346.48;186129;1231;57474;-57
2023/06/14 19:23:04;;;;;;;9.10;5.70;;;;;;;18.50;95.10;100350.52;186026;1231;45786;-56
2023/06/14 19:27:07;;;;;;;5.50;4.30;;;;;;;18.39;94.67;100348.52;185926;1231;43854;-57